Airfield :
LOGIN :

Register | Disclaimer

   EN    FR    IT 

 










Legend :    VFR   Marginal VFR   IFR   Intensive IFR   Very Intensive IFR
Visi :
Ceiling :
>= 8 km
>= 3000ft
5 to 8 km
1000 to 3000 ft
1500m to 5 km
500 to 1000 ft
800 to 1500m
200 to 500 ft
< 800m
< 200 ft
Symbols :   Thunderstorms  Fog  Heavy snow  Heavy precipitations  Wind > 20 kt
SIGMETs :     Misc.  Thunderstorms  Icing  Turbulence  Mountain Waves  Volcanic Ashes






- Airport Elevation : 266 ft
- IATA code : NCL


EGNT - Newcastle

CURRENT METAR :
  • 140750Z 26017KT 9999 FEW019 04/02 Q0976

EXPIRED METARs :
  • 140720Z 26020G32KT 9999 FEW022 04/02 Q0975
  • 140650Z 26017KT 9999 FEW020 04/02 Q0975
  • 140620Z 26018G28KT 9999 SCT022 04/02 Q0975
  • 140550Z 26017G27KT 9999 FEW018 04/02 Q0975
  • 140520Z 26017KT 9999 FEW018 04/02 Q0974

TAF TAF EGNT
Valid from the 14 at 06:00 until the 15 at 06:00 UTC


140455Z 1406/1506 26015KT 9999 FEW010 SCT030
TEMPO 1406/1421 27018G28KT
PROB30
TEMPO 1406/1412 6000 SHRA BKN010
BECMG 1421/1424 18006KT
PROB30
TEMPO 1423/1506 8000 -RA BKN014
ATIS : +44 191 214 3400



MET'MAP, your aeronautical weather chart ! - Copyright ORBIFLY December 2007 - Disclaimer

ORBIFLY MET'MAP TEAM :

Programming & Development : Alexandra Zaïnal
Concept & original design : Baudouin d'Aumeries
Assistance for programming : Marc-Olivier Méhu
Technical & hardware support : Manuel Goepfert

Contact : metmap@orbifly.com




SOURCES & CREDITS :

   NOAA